This is the latest recevied weather packets stored in our database for station/object WW3TRG. If no packets are shown the sender has not sent any weather packets the latest 10 day(s).
| Time | Temp. | Humidity | Pressure | Rain* | Wind** | Luminosity | Snow |
|---|---|---|---|---|---|---|---|
| 1778067823 | 17.78° C | 85% | 1007.7 hPa | 0 mm | - | 32 W/m² | - |
| 1778067521 | 18.33° C | 83% | 1007.5 hPa | 0 mm | - | 34 W/m² | - |
| 1778067219 | 17.78° C | 84% | 1007.5 hPa | 0 mm | - | 44 W/m² | - |
| 1778066915 | 17.78° C | 84% | 1007.5 hPa | 0 mm | - | 38 W/m² | - |
| 1778066612 | 17.22° C | 87% | 1007.7 hPa | 0 mm | - | 27 W/m² | - |
| 1778066309 | 16.67° C | 89% | 1007.6 hPa | 0 mm | - | 17 W/m² | - |
| 1778066008 | 16.67° C | 88% | 1007.8 hPa | 0 mm | - | 18 W/m² | - |
| 1778065705 | 16.67° C | 88% | 1007.7 hPa | 0 mm | - | 17 W/m² | - |
| 1778065402 | 17.22° C | 87% | 1007.3 hPa | 0 mm | - | 18 W/m² | - |
| 1778065099 | 16.67° C | 87% | 1007.7 hPa | 0 mm | - | 18 W/m² | - |
| 1778064795 | 16.67° C | 89% | 1007.3 hPa | 0 mm | - | 22 W/m² | - |
| 1778064493 | 15.56° C | 92% | 1007.3 hPa | 0 mm | - | 26 W/m² | - |
| 1778064190 | 15° C | 94% | 1007.3 hPa | 0 mm | - | 37 W/m² | - |
| 1778063888 | 15° C | 94% | 1007.2 hPa | 0 mm | - | 31 W/m² | - |
| 1778063585 | 14.44° C | 94% | 1007.3 hPa | 0 mm | - | 27 W/m² | - |
| 1778063283 | 14.44° C | 94% | 1007.1 hPa | 0 mm | - | 17 W/m² | - |
| 1778062980 | 13.89° C | 94% | 1007.1 hPa | 0 mm | - | 9 W/m² | - |
| 1778062678 | 13.89° C | 94% | 1007.2 hPa | 0 mm | - | 9 W/m² | - |
| 1778062373 | 13.89° C | 94% | 1007.3 hPa | 0 mm | - | 5 W/m² | - |
| 1778062071 | 13.89° C | 94% | 1007.1 hPa | 0 mm | - | 2 W/m² | - |
| 1778061769 | 13.89° C | 94% | 1007.1 hPa | 0 mm | - | 0 W/m² | - |
| 1778061468 | 13.89° C | 94% | 1007.2 hPa | 0 mm | - | 0 W/m² | - |
| 1778061164 | 13.89° C | 94% | 1007.3 hPa | 0 mm | - | 0 W/m² | - |
| 1778060861 | 13.89° C | 94% | 1007.4 hPa | 0 mm | - | 0 W/m² | - |
| 1778060559 | 13.89° C | 94% | 1007.4 hPa | 0 mm | - | 0 W/m² | - |
* Rain latest hour (hover to see other rain measurements)
** Current wind speed in m/s (hover to see current wind gust speed)